sensor_id;sensor_type;location;lat;lon;timestamp;P1;durP1;ratioP1;P2;durP2;ratioP2
4428;SDS011;2227;47.810;8.810;2023-04-03T03:47:12;701.50;;;611.67;;
4428;SDS011;2227;47.810;8.810;2023-04-03T03:49:39;704.28;;;603.15;;
4428;SDS011;2227;47.810;8.810;2023-04-03T03:52:07;707.25;;;602.95;;
4428;SDS011;2227;47.810;8.810;2023-04-03T03:54:36;705.10;;;607.33;;
4428;SDS011;2227;47.810;8.810;2023-04-03T03:57:04;713.28;;;601.42;;
4428;SDS011;2227;47.810;8.810;2023-04-03T03:59:31;707.30;;;600.77;;
4428;SDS011;2227;47.810;8.810;2023-04-03T04:01:57;703.47;;;601.33;;
4428;SDS011;2227;47.810;8.810;2023-04-03T04:04:24;706.97;;;603.53;;
4428;SDS011;2227;47.810;8.810;2023-04-03T04:06:51;716.78;;;606.13;;
4428;SDS011;2227;47.810;8.810;2023-04-03T04:09:18;712.80;;;612.47;;
4428;SDS011;2227;47.810;8.810;2023-04-03T04:11:44;717.92;;;608.58;;
4428;SDS011;2227;47.810;8.810;2023-04-03T04:14:11;720.20;;;606.80;;
4428;SDS011;2227;47.810;8.810;2023-04-03T04:16:39;718.70;;;611.83;;
4428;SDS011;2227;47.810;8.810;2023-04-03T04:19:06;718.38;;;611.38;;
4428;SDS011;2227;47.810;8.810;2023-04-03T04:21:34;718.22;;;616.05;;
4428;SDS011;2227;47.810;8.810;2023-04-03T04:24:01;719.88;;;622.17;;
4428;SDS011;2227;47.810;8.810;2023-04-03T04:26:28;718.33;;;604.13;;
4428;SDS011;2227;47.810;8.810;2023-04-03T04:28:55;717.05;;;607.15;;
4428;SDS011;2227;47.810;8.810;2023-04-03T04:31:22;716.00;;;608.90;;
4428;SDS011;2227;47.810;8.810;2023-04-03T04:33:49;714.05;;;607.40;;
4428;SDS011;2227;47.810;8.810;2023-04-03T04:36:16;725.47;;;591.78;;
4428;SDS011;2227;47.810;8.810;2023-04-03T04:38:43;719.08;;;590.50;;
4428;SDS011;2227;47.810;8.810;2023-04-03T04:41:10;719.60;;;583.67;;
4428;SDS011;2227;47.810;8.810;2023-04-03T04:43:36;722.75;;;581.28;;
4428;SDS011;2227;47.810;8.810;2023-04-03T04:46:04;723.60;;;577.13;;
4428;SDS011;2227;47.810;8.810;2023-04-03T04:48:35;725.05;;;577.00;;
4428;SDS011;2227;47.810;8.810;2023-04-03T04:51:02;711.55;;;586.90;;
4428;SDS011;2227;47.810;8.810;2023-04-03T04:53:29;710.38;;;584.95;;
4428;SDS011;2227;47.810;8.810;2023-04-03T04:55:56;707.73;;;593.17;;
4428;SDS011;2227;47.810;8.810;2023-04-03T04:58:22;707.22;;;586.28;;
4428;SDS011;2227;47.810;8.810;2023-04-03T05:00:49;705.95;;;588.22;;
4428;SDS011;2227;47.810;8.810;2023-04-03T05:03:16;708.30;;;586.33;;
4428;SDS011;2227;47.810;8.810;2023-04-03T05:05:43;705.95;;;585.33;;
4428;SDS011;2227;47.810;8.810;2023-04-03T05:08:09;709.55;;;577.05;;
4428;SDS011;2227;47.810;8.810;2023-04-03T05:10:36;714.28;;;597.78;;
4428;SDS011;2227;47.810;8.810;2023-04-03T05:13:03;702.27;;;600.20;;
4428;SDS011;2227;47.810;8.810;2023-04-03T05:15:30;704.92;;;590.08;;
4428;SDS011;2227;47.810;8.810;2023-04-03T05:17:56;703.78;;;599.42;;
4428;SDS011;2227;47.810;8.810;2023-04-03T05:20:23;704.38;;;587.55;;
4428;SDS011;2227;47.810;8.810;2023-04-03T05:22:50;702.58;;;584.88;;
4428;SDS011;2227;47.810;8.810;2023-04-03T05:25:17;702.72;;;582.58;;
4428;SDS011;2227;47.810;8.810;2023-04-03T05:27:43;702.85;;;574.50;;
4428;SDS011;2227;47.810;8.810;2023-04-03T05:30:10;704.83;;;595.05;;
4428;SDS011;2227;47.810;8.810;2023-04-03T05:32:37;705.58;;;592.97;;
4428;SDS011;2227;47.810;8.810;2023-04-03T05:35:07;711.08;;;586.65;;
4428;SDS011;2227;47.810;8.810;2023-04-03T05:37:35;713.72;;;589.00;;
4428;SDS011;2227;47.810;8.810;2023-04-03T05:40:04;721.00;;;567.60;;
4428;SDS011;2227;47.810;8.810;2023-04-03T05:42:31;717.28;;;567.63;;
4428;SDS011;2227;47.810;8.810;2023-04-03T05:44:58;724.72;;;556.53;;
4428;SDS011;2227;47.810;8.810;2023-04-03T05:47:25;720.40;;;555.83;;
4428;SDS011;2227;47.810;8.810;2023-04-03T05:49:52;715.75;;;571.47;;
4428;SDS011;2227;47.810;8.810;2023-04-03T05:52:28;714.42;;;582.67;;
4428;SDS011;2227;47.810;8.810;2023-04-03T05:54:57;709.05;;;580.20;;
4428;SDS011;2227;47.810;8.810;2023-04-03T05:57:23;714.90;;;578.17;;
4428;SDS011;2227;47.810;8.810;2023-04-03T05:59:51;708.00;;;586.15;;
4428;SDS011;2227;47.810;8.810;2023-04-03T06:02:19;710.85;;;593.78;;
4428;SDS011;2227;47.810;8.810;2023-04-03T06:04:48;710.30;;;588.95;;
4428;SDS011;2227;47.810;8.810;2023-04-03T06:07:16;711.15;;;590.65;;
4428;SDS011;2227;47.810;8.810;2023-04-03T06:09:45;711.70;;;588.20;;
4428;SDS011;2227;47.810;8.810;2023-04-03T06:12:12;690.38;;;599.47;;
4428;SDS011;2227;47.810;8.810;2023-04-03T06:14:39;693.08;;;594.35;;
4428;SDS011;2227;47.810;8.810;2023-04-03T06:17:06;692.20;;;599.85;;
4428;SDS011;2227;47.810;8.810;2023-04-03T06:19:34;695.70;;;596.47;;
4428;SDS011;2227;47.810;8.810;2023-04-03T06:22:02;702.53;;;597.35;;
4428;SDS011;2227;47.810;8.810;2023-04-03T06:24:30;701.50;;;600.17;;
4428;SDS011;2227;47.810;8.810;2023-04-03T06:26:57;706.57;;;602.30;;
4428;SDS011;2227;47.810;8.810;2023-04-03T06:29:23;700.33;;;598.80;;
4428;SDS011;2227;47.810;8.810;2023-04-03T06:31:51;701.97;;;602.95;;
4428;SDS011;2227;47.810;8.810;2023-04-03T06:34:18;702.03;;;602.95;;
4428;SDS011;2227;47.810;8.810;2023-04-03T06:36:44;704.72;;;611.13;;
4428;SDS011;2227;47.810;8.810;2023-04-03T06:39:13;705.13;;;612.28;;
4428;SDS011;2227;47.810;8.810;2023-04-03T06:41:48;704.33;;;611.53;;
4428;SDS011;2227;47.810;8.810;2023-04-03T06:44:17;711.95;;;609.25;;
4428;SDS011;2227;47.810;8.810;2023-04-03T06:46:43;704.47;;;615.17;;
4428;SDS011;2227;47.810;8.810;2023-04-03T06:49:12;702.92;;;613.00;;
4428;SDS011;2227;47.810;8.810;2023-04-03T06:51:39;708.75;;;617.78;;
4428;SDS011;2227;47.810;8.810;2023-04-03T06:54:06;705.38;;;618.53;;
4428;SDS011;2227;47.810;8.810;2023-04-03T06:56:34;710.20;;;619.15;;
4428;SDS011;2227;47.810;8.810;2023-04-03T06:59:02;705.13;;;623.13;;
4428;SDS011;2227;47.810;8.810;2023-04-03T07:01:29;708.35;;;627.08;;
4428;SDS011;2227;47.810;8.810;2023-04-03T07:03:57;710.58;;;632.25;;
4428;SDS011;2227;47.810;8.810;2023-04-03T07:06:24;721.90;;;643.87;;
4428;SDS011;2227;47.810;8.810;2023-04-03T07:08:53;723.55;;;645.58;;
4428;SDS011;2227;47.810;8.810;2023-04-03T07:11:20;733.30;;;654.40;;
4428;SDS011;2227;47.810;8.810;2023-04-03T07:13:48;734.50;;;655.25;;
4428;SDS011;2227;47.810;8.810;2023-04-03T07:16:15;722.08;;;643.28;;
4428;SDS011;2227;47.810;8.810;2023-04-03T07:18:42;725.45;;;647.38;;
4428;SDS011;2227;47.810;8.810;2023-04-03T07:21:09;752.88;;;673.20;;
4428;SDS011;2227;47.810;8.810;2023-04-03T07:23:36;756.42;;;676.72;;
4428;SDS011;2227;47.810;8.810;2023-04-03T07:26:03;761.97;;;682.75;;
4428;SDS011;2227;47.810;8.810;2023-04-03T07:28:29;763.15;;;683.90;;
4428;SDS011;2227;47.810;8.810;2023-04-03T07:31:01;759.95;;;680.55;;
4428;SDS011;2227;47.810;8.810;2023-04-03T07:33:38;760.53;;;681.42;;
4428;SDS011;2227;47.810;8.810;2023-04-03T07:36:05;770.47;;;691.47;;
4428;SDS011;2227;47.810;8.810;2023-04-03T07:38:33;764.50;;;684.75;;
4428;SDS011;2227;47.810;8.810;2023-04-03T07:41:01;757.55;;;677.53;;
4428;SDS011;2227;47.810;8.810;2023-04-03T07:43:28;748.85;;;669.25;;
4428;SDS011;2227;47.810;8.810;2023-04-03T07:45:55;758.93;;;678.83;;
4428;SDS011;2227;47.810;8.810;2023-04-03T07:48:23;757.50;;;677.30;;
4428;SDS011;2227;47.810;8.810;2023-04-03T07:50:52;757.35;;;676.67;;
4428;SDS011;2227;47.810;8.810;2023-04-03T07:53:19;746.77;;;667.63;;
4428;SDS011;2227;47.810;8.810;2023-04-03T07:55:46;732.67;;;653.78;;
4428;SDS011;2227;47.810;8.810;2023-04-03T07:58:16;725.70;;;647.30;;
4428;SDS011;2227;47.810;8.810;2023-04-03T08:00:44;734.80;;;654.97;;
4428;SDS011;2227;47.810;8.810;2023-04-03T08:03:11;748.25;;;669.17;;
4428;SDS011;2227;47.810;8.810;2023-04-03T08:05:42;758.40;;;679.10;;
4428;SDS011;2227;47.810;8.810;2023-04-03T08:08:12;768.72;;;689.53;;
4428;SDS011;2227;47.810;8.810;2023-04-03T08:10:40;765.92;;;686.53;;
4428;SDS011;2227;47.810;8.810;2023-04-03T08:13:08;770.97;;;691.70;;
4428;SDS011;2227;47.810;8.810;2023-04-03T08:15:35;766.97;;;687.87;;
4428;SDS011;2227;47.810;8.810;2023-04-03T08:18:03;778.30;;;699.10;;
4428;SDS011;2227;47.810;8.810;2023-04-03T08:20:30;773.67;;;694.88;;
4428;SDS011;2227;47.810;8.810;2023-04-03T08:22:57;781.17;;;701.17;;
4428;SDS011;2227;47.810;8.810;2023-04-03T08:25:23;773.47;;;694.17;;
4428;SDS011;2227;47.810;8.810;2023-04-03T08:27:50;777.63;;;697.92;;
4428;SDS011;2227;47.810;8.810;2023-04-03T08:30:17;777.58;;;698.90;;
4428;SDS011;2227;47.810;8.810;2023-04-03T08:32:44;780.63;;;701.92;;
4428;SDS011;2227;47.810;8.810;2023-04-03T08:35:11;786.85;;;708.05;;
4428;SDS011;2227;47.810;8.810;2023-04-03T08:37:38;792.88;;;713.75;;
4428;SDS011;2227;47.810;8.810;2023-04-03T08:40:07;797.07;;;717.30;;
4428;SDS011;2227;47.810;8.810;2023-04-03T08:42:48;802.25;;;723.35;;
4428;SDS011;2227;47.810;8.810;2023-04-03T08:46:05;809.45;;;730.53;;
4428;SDS011;2227;47.810;8.810;2023-04-03T08:48:14;803.25;;;724.75;;
4428;SDS011;2227;47.810;8.810;2023-04-03T08:50:58;807.72;;;729.08;;
4428;SDS011;2227;47.810;8.810;2023-04-03T08:53:29;812.05;;;731.97;;
4428;SDS011;2227;47.810;8.810;2023-04-03T08:56:00;807.90;;;728.00;;
4428;SDS011;2227;47.810;8.810;2023-04-03T08:58:33;813.20;;;733.77;;
4428;SDS011;2227;47.810;8.810;2023-04-03T09:01:21;814.35;;;734.15;;
4428;SDS011;2227;47.810;8.810;2023-04-03T09:03:53;809.45;;;729.15;;
4428;SDS011;2227;47.810;8.810;2023-04-03T09:06:21;813.17;;;733.53;;
4428;SDS011;2227;47.810;8.810;2023-04-03T09:17:19;799.30;;;719.72;;
4428;SDS011;2227;47.810;8.810;2023-04-03T09:22:41;817.90;;;738.05;;
4428;SDS011;2227;47.810;8.810;2023-04-03T09:25:25;813.92;;;733.70;;
4428;SDS011;2227;47.810;8.810;2023-04-03T09:28:03;809.13;;;729.15;;
4428;SDS011;2227;47.810;8.810;2023-04-03T09:30:36;824.55;;;744.05;;
4428;SDS011;2227;47.810;8.810;2023-04-03T09:33:04;840.15;;;760.45;;
4428;SDS011;2227;47.810;8.810;2023-04-03T09:35:34;838.63;;;759.37;;
4428;SDS011;2227;47.810;8.810;2023-04-03T09:41:18;872.88;;;794.08;;
4428;SDS011;2227;47.810;8.810;2023-04-03T09:43:51;890.83;;;813.42;;
4428;SDS011;2227;47.810;8.810;2023-04-03T09:46:30;902.90;;;825.22;;
4428;SDS011;2227;47.810;8.810;2023-04-03T09:49:00;909.60;;;832.10;;
4428;SDS011;2227;47.810;8.810;2023-04-03T09:51:35;922.45;;;843.90;;
4428;SDS011;2227;47.810;8.810;2023-04-03T09:54:24;920.67;;;841.95;;
4428;SDS011;2227;47.810;8.810;2023-04-03T09:57:06;921.63;;;842.80;;
4428;SDS011;2227;47.810;8.810;2023-04-03T09:59:41;912.60;;;834.10;;
4428;SDS011;2227;47.810;8.810;2023-04-03T10:02:21;905.75;;;827.30;;
4428;SDS011;2227;47.810;8.810;2023-04-03T10:04:55;903.53;;;824.90;;
4428;SDS011;2227;47.810;8.810;2023-04-03T10:07:36;909.05;;;829.72;;
4428;SDS011;2227;47.810;8.810;2023-04-03T10:10:16;899.97;;;821.45;;
4428;SDS011;2227;47.810;8.810;2023-04-03T10:12:46;904.40;;;825.22;;
4428;SDS011;2227;47.810;8.810;2023-04-03T10:15:14;905.30;;;825.25;;
4428;SDS011;2227;47.810;8.810;2023-04-03T10:17:57;897.03;;;817.28;;
4428;SDS011;2227;47.810;8.810;2023-04-03T10:20:42;870.33;;;791.72;;
4428;SDS011;2227;47.810;8.810;2023-04-03T10:23:15;865.97;;;787.17;;
4428;SDS011;2227;47.810;8.810;2023-04-03T10:25:50;856.78;;;778.17;;
4428;SDS011;2227;47.810;8.810;2023-04-03T10:31:03;830.83;;;752.92;;
4428;SDS011;2227;47.810;8.810;2023-04-03T10:33:56;830.90;;;753.10;;
4428;SDS011;2227;47.810;8.810;2023-04-03T10:36:33;835.85;;;757.47;;
4428;SDS011;2227;47.810;8.810;2023-04-03T10:47:59;824.88;;;745.90;;
4428;SDS011;2227;47.810;8.810;2023-04-03T10:50:39;832.55;;;753.53;;
4428;SDS011;2227;47.810;8.810;2023-04-03T10:58:40;822.15;;;742.85;;
4428;SDS011;2227;47.810;8.810;2023-04-03T11:01:14;820.38;;;740.83;;
4428;SDS011;2227;47.810;8.810;2023-04-03T11:03:49;825.90;;;747.05;;
4428;SDS011;2227;47.810;8.810;2023-04-03T11:06:19;827.47;;;748.38;;
4428;SDS011;2227;47.810;8.810;2023-04-03T11:11:33;825.80;;;747.67;;
4428;SDS011;2227;47.810;8.810;2023-04-03T11:14:05;816.72;;;738.05;;
4428;SDS011;2227;47.810;8.810;2023-04-03T11:16:48;813.65;;;734.65;;
4428;SDS011;2227;47.810;8.810;2023-04-03T11:19:38;812.63;;;733.78;;
4428;SDS011;2227;47.810;8.810;2023-04-03T11:22:42;815.95;;;736.80;;
4428;SDS011;2227;47.810;8.810;2023-04-03T11:30:28;802.97;;;724.65;;
4428;SDS011;2227;47.810;8.810;2023-04-03T11:35:56;810.03;;;731.63;;
4428;SDS011;2227;47.810;8.810;2023-04-03T11:38:32;807.40;;;729.13;;
4428;SDS011;2227;47.810;8.810;2023-04-03T11:41:02;796.05;;;717.88;;
4428;SDS011;2227;47.810;8.810;2023-04-03T11:43:31;799.08;;;721.17;;
4428;SDS011;2227;47.810;8.810;2023-04-03T11:45:59;794.07;;;715.93;;
4428;SDS011;2227;47.810;8.810;2023-04-03T11:50:56;784.50;;;706.47;;
4428;SDS011;2227;47.810;8.810;2023-04-03T11:53:36;785.75;;;708.00;;
4428;SDS011;2227;47.810;8.810;2023-04-03T11:56:48;789.03;;;710.60;;
4428;SDS011;2227;47.810;8.810;2023-04-03T12:01:59;788.87;;;711.33;;
4428;SDS011;2227;47.810;8.810;2023-04-03T12:04:28;802.05;;;724.85;;
4428;SDS011;2227;47.810;8.810;2023-04-03T12:07:01;794.65;;;717.60;;
4428;SDS011;2227;47.810;8.810;2023-04-03T12:15:41;794.95;;;717.30;;
4428;SDS011;2227;47.810;8.810;2023-04-03T12:21:06;796.83;;;719.50;;
4428;SDS011;2227;47.810;8.810;2023-04-03T12:23:33;790.65;;;713.45;;
4428;SDS011;2227;47.810;8.810;2023-04-03T12:26:03;781.20;;;703.33;;
4428;SDS011;2227;47.810;8.810;2023-04-03T12:28:35;786.05;;;708.35;;
4428;SDS011;2227;47.810;8.810;2023-04-03T12:31:04;780.22;;;702.63;;
4428;SDS011;2227;47.810;8.810;2023-04-03T12:37:34;784.83;;;707.03;;
4428;SDS011;2227;47.810;8.810;2023-04-03T12:45:15;801.90;;;723.53;;
4428;SDS011;2227;47.810;8.810;2023-04-03T12:47:45;798.53;;;720.28;;
4428;SDS011;2227;47.810;8.810;2023-04-03T12:52:57;804.92;;;726.33;;
4428;SDS011;2227;47.810;8.810;2023-04-03T12:55:29;813.55;;;735.42;;
4428;SDS011;2227;47.810;8.810;2023-04-03T12:57:55;813.83;;;735.10;;
4428;SDS011;2227;47.810;8.810;2023-04-03T13:00:31;815.42;;;736.40;;
4428;SDS011;2227;47.810;8.810;2023-04-03T13:03:01;814.67;;;735.92;;
4428;SDS011;2227;47.810;8.810;2023-04-03T13:05:30;811.58;;;733.08;;
4428;SDS011;2227;47.810;8.810;2023-04-03T13:08:03;817.97;;;739.63;;
4428;SDS011;2227;47.810;8.810;2023-04-03T13:10:35;815.65;;;737.45;;
4428;SDS011;2227;47.810;8.810;2023-04-03T13:13:13;810.37;;;731.77;;
4428;SDS011;2227;47.810;8.810;2023-04-03T13:15:45;813.40;;;734.63;;
4428;SDS011;2227;47.810;8.810;2023-04-03T13:18:26;813.90;;;735.20;;
4428;SDS011;2227;47.810;8.810;2023-04-03T13:20:57;807.13;;;728.72;;
4428;SDS011;2227;47.810;8.810;2023-04-03T13:23:29;810.22;;;731.13;;
4428;SDS011;2227;47.810;8.810;2023-04-03T13:25:57;808.67;;;729.78;;
4428;SDS011;2227;47.810;8.810;2023-04-03T13:28:30;800.65;;;721.78;;
4428;SDS011;2227;47.810;8.810;2023-04-03T13:31:02;794.40;;;716.10;;
4428;SDS011;2227;47.810;8.810;2023-04-03T13:34:02;796.00;;;718.10;;
4428;SDS011;2227;47.810;8.810;2023-04-03T13:36:41;794.05;;;716.10;;
4428;SDS011;2227;47.810;8.810;2023-04-03T13:41:46;807.70;;;729.47;;
4428;SDS011;2227;47.810;8.810;2023-04-03T13:46:53;813.78;;;735.40;;
4428;SDS011;2227;47.810;8.810;2023-04-03T13:49:29;809.00;;;730.00;;
4428;SDS011;2227;47.810;8.810;2023-04-03T13:51:59;803.70;;;724.30;;
4428;SDS011;2227;47.810;8.810;2023-04-03T13:54:34;803.30;;;724.80;;
4428;SDS011;2227;47.810;8.810;2023-04-03T13:57:11;812.72;;;734.08;;
4428;SDS011;2227;47.810;8.810;2023-04-03T13:59:40;811.90;;;733.25;;
4428;SDS011;2227;47.810;8.810;2023-04-03T14:02:15;810.97;;;733.30;;
4428;SDS011;2227;47.810;8.810;2023-04-03T14:07:11;816.72;;;738.67;;
4428;SDS011;2227;47.810;8.810;2023-04-03T14:09:38;813.33;;;735.30;;
4428;SDS011;2227;47.810;8.810;2023-04-03T14:12:11;820.90;;;742.80;;
4428;SDS011;2227;47.810;8.810;2023-04-03T14:15:00;824.70;;;746.45;;
4428;SDS011;2227;47.810;8.810;2023-04-03T14:17:29;816.13;;;738.03;;
4428;SDS011;2227;47.810;8.810;2023-04-03T14:19:56;814.95;;;736.20;;
4428;SDS011;2227;47.810;8.810;2023-04-03T14:22:25;811.13;;;732.00;;
4428;SDS011;2227;47.810;8.810;2023-04-03T14:24:55;808.42;;;729.30;;
4428;SDS011;2227;47.810;8.810;2023-04-03T14:27:24;812.65;;;733.88;;
4428;SDS011;2227;47.810;8.810;2023-04-03T14:29:57;818.17;;;739.47;;
4428;SDS011;2227;47.810;8.810;2023-04-03T14:32:25;821.45;;;742.95;;
4428;SDS011;2227;47.810;8.810;2023-04-03T14:34:53;808.80;;;730.47;;
4428;SDS011;2227;47.810;8.810;2023-04-03T14:37:22;813.85;;;735.50;;
4428;SDS011;2227;47.810;8.810;2023-04-03T14:39:51;815.63;;;737.03;;
4428;SDS011;2227;47.810;8.810;2023-04-03T14:42:23;815.33;;;736.65;;
4428;SDS011;2227;47.810;8.810;2023-04-03T14:44:53;816.45;;;737.85;;
4428;SDS011;2227;47.810;8.810;2023-04-03T14:47:21;816.55;;;737.60;;
4428;SDS011;2227;47.810;8.810;2023-04-03T14:49:58;807.60;;;729.38;;
4428;SDS011;2227;47.810;8.810;2023-04-03T14:52:30;813.80;;;734.92;;
4428;SDS011;2227;47.810;8.810;2023-04-03T14:55:00;815.88;;;737.58;;
4428;SDS011;2227;47.810;8.810;2023-04-03T14:57:28;821.75;;;743.60;;
4428;SDS011;2227;47.810;8.810;2023-04-03T14:59:56;838.85;;;759.95;;
4428;SDS011;2227;47.810;8.810;2023-04-03T15:02:28;860.78;;;781.20;;
4428;SDS011;2227;47.810;8.810;2023-04-03T15:05:04;855.90;;;776.33;;
4428;SDS011;2227;47.810;8.810;2023-04-03T15:07:33;860.83;;;780.53;;
4428;SDS011;2227;47.810;8.810;2023-04-03T15:12:47;830.80;;;752.20;;
4428;SDS011;2227;47.810;8.810;2023-04-03T15:15:15;819.90;;;741.45;;
4428;SDS011;2227;47.810;8.810;2023-04-03T15:17:43;832.92;;;755.03;;
4428;SDS011;2227;47.810;8.810;2023-04-03T15:20:15;826.50;;;748.55;;
4428;SDS011;2227;47.810;8.810;2023-04-03T15:22:47;829.70;;;751.17;;
4428;SDS011;2227;47.810;8.810;2023-04-03T15:25:13;826.80;;;748.70;;
4428;SDS011;2227;47.810;8.810;2023-04-03T15:27:41;824.20;;;745.53;;
4428;SDS011;2227;47.810;8.810;2023-04-03T15:30:11;821.88;;;744.22;;
4428;SDS011;2227;47.810;8.810;2023-04-03T15:32:41;816.65;;;738.65;;
4428;SDS011;2227;47.810;8.810;2023-04-03T15:35:08;819.70;;;741.42;;
4428;SDS011;2227;47.810;8.810;2023-04-03T15:37:35;812.80;;;734.00;;
4428;SDS011;2227;47.810;8.810;2023-04-03T15:40:01;813.28;;;734.53;;
4428;SDS011;2227;47.810;8.810;2023-04-03T15:42:29;802.92;;;724.65;;
4428;SDS011;2227;47.810;8.810;2023-04-03T15:44:55;807.20;;;729.33;;
4428;SDS011;2227;47.810;8.810;2023-04-03T15:47:22;811.13;;;733.22;;
4428;SDS011;2227;47.810;8.810;2023-04-03T15:49:51;810.90;;;732.92;;
4428;SDS011;2227;47.810;8.810;2023-04-03T15:52:18;811.83;;;733.42;;
4428;SDS011;2227;47.810;8.810;2023-04-03T15:54:45;815.95;;;737.67;;
4428;SDS011;2227;47.810;8.810;2023-04-03T15:57:12;802.22;;;723.88;;
4428;SDS011;2227;47.810;8.810;2023-04-03T15:59:39;805.20;;;726.15;;
4428;SDS011;2227;47.810;8.810;2023-04-03T16:02:06;797.55;;;719.63;;
4428;SDS011;2227;47.810;8.810;2023-04-03T16:04:36;806.70;;;729.80;;
4428;SDS011;2227;47.810;8.810;2023-04-03T16:07:03;797.88;;;719.78;;
4428;SDS011;2227;47.810;8.810;2023-04-03T16:09:31;798.03;;;720.72;;
4428;SDS011;2227;47.810;8.810;2023-04-03T16:11:58;802.10;;;724.55;;
4428;SDS011;2227;47.810;8.810;2023-04-03T16:14:26;791.20;;;713.70;;
4428;SDS011;2227;47.810;8.810;2023-04-03T16:16:54;791.45;;;714.45;;
4428;SDS011;2227;47.810;8.810;2023-04-03T16:19:21;777.72;;;699.25;;
4428;SDS011;2227;47.810;8.810;2023-04-03T16:21:51;779.28;;;701.58;;
4428;SDS011;2227;47.810;8.810;2023-04-03T16:24:18;780.80;;;702.70;;
4428;SDS011;2227;47.810;8.810;2023-04-03T16:26:45;778.03;;;700.10;;
4428;SDS011;2227;47.810;8.810;2023-04-03T16:29:12;779.95;;;701.85;;
4428;SDS011;2227;47.810;8.810;2023-04-03T16:31:38;783.05;;;705.55;;
4428;SDS011;2227;47.810;8.810;2023-04-03T16:34:05;783.53;;;705.75;;
4428;SDS011;2227;47.810;8.810;2023-04-03T16:36:32;781.58;;;704.17;;
4428;SDS011;2227;47.810;8.810;2023-04-03T16:38:59;783.67;;;706.10;;
4428;SDS011;2227;47.810;8.810;2023-04-03T16:41:26;785.72;;;707.33;;
4428;SDS011;2227;47.810;8.810;2023-04-03T16:43:52;779.60;;;701.20;;
4428;SDS011;2227;47.810;8.810;2023-04-03T16:46:19;785.53;;;706.67;;
4428;SDS011;2227;47.810;8.810;2023-04-03T16:48:46;779.20;;;700.80;;
4428;SDS011;2227;47.810;8.810;2023-04-03T16:51:13;781.67;;;702.97;;
4428;SDS011;2227;47.810;8.810;2023-04-03T16:53:39;772.83;;;694.42;;
4428;SDS011;2227;47.810;8.810;2023-04-03T16:56:06;774.65;;;695.67;;
4428;SDS011;2227;47.810;8.810;2023-04-03T16:58:33;767.15;;;688.20;;
4428;SDS011;2227;47.810;8.810;2023-04-03T17:01:07;766.28;;;688.33;;
4428;SDS011;2227;47.810;8.810;2023-04-03T17:03:35;757.80;;;680.33;;
4428;SDS011;2227;47.810;8.810;2023-04-03T17:06:02;764.58;;;687.05;;
4428;SDS011;2227;47.810;8.810;2023-04-03T17:08:29;759.47;;;681.47;;
4428;SDS011;2227;47.810;8.810;2023-04-03T17:10:55;763.40;;;685.50;;
4428;SDS011;2227;47.810;8.810;2023-04-03T17:13:22;763.92;;;686.22;;
4428;SDS011;2227;47.810;8.810;2023-04-03T17:15:49;752.83;;;675.50;;
4428;SDS011;2227;47.810;8.810;2023-04-03T17:18:15;753.90;;;676.50;;
4428;SDS011;2227;47.810;8.810;2023-04-03T17:20:42;762.88;;;685.33;;
4428;SDS011;2227;47.810;8.810;2023-04-03T17:23:09;754.08;;;677.08;;
4428;SDS011;2227;47.810;8.810;2023-04-03T17:25:35;763.47;;;686.30;;
4428;SDS011;2227;47.810;8.810;2023-04-03T17:28:03;755.45;;;678.45;;
4428;SDS011;2227;47.810;8.810;2023-04-03T17:30:29;761.75;;;684.45;;
4428;SDS011;2227;47.810;8.810;2023-04-03T17:32:56;757.92;;;680.75;;
4428;SDS011;2227;47.810;8.810;2023-04-03T17:35:23;764.85;;;687.50;;
4428;SDS011;2227;47.810;8.810;2023-04-03T17:37:49;751.67;;;673.97;;
4428;SDS011;2227;47.810;8.810;2023-04-03T17:40:16;756.55;;;678.88;;
4428;SDS011;2227;47.810;8.810;2023-04-03T17:42:43;755.83;;;677.85;;
4428;SDS011;2227;47.810;8.810;2023-04-03T17:45:10;751.78;;;673.97;;
4428;SDS011;2227;47.810;8.810;2023-04-03T17:47:37;751.00;;;673.60;;
4428;SDS011;2227;47.810;8.810;2023-04-03T17:50:05;728.75;;;651.65;;
4428;SDS011;2227;47.810;8.810;2023-04-03T17:52:32;753.13;;;675.08;;
4428;SDS011;2227;47.810;8.810;2023-04-03T17:54:59;724.97;;;648.10;;
4428;SDS011;2227;47.810;8.810;2023-04-03T17:57:25;739.92;;;661.47;;
4428;SDS011;2227;47.810;8.810;2023-04-03T17:59:52;741.72;;;664.08;;
4428;SDS011;2227;47.810;8.810;2023-04-03T18:02:19;743.75;;;667.00;;
4428;SDS011;2227;47.810;8.810;2023-04-03T18:04:46;752.17;;;675.38;;
4428;SDS011;2227;47.810;8.810;2023-04-03T18:07:12;742.58;;;666.50;;
4428;SDS011;2227;47.810;8.810;2023-04-03T18:09:39;748.60;;;671.70;;
4428;SDS011;2227;47.810;8.810;2023-04-03T18:12:07;735.95;;;658.22;;
4428;SDS011;2227;47.810;8.810;2023-04-03T18:14:34;726.60;;;649.85;;
4428;SDS011;2227;47.810;8.810;2023-04-03T18:17:03;731.75;;;654.10;;
4428;SDS011;2227;47.810;8.810;2023-04-03T18:19:30;728.83;;;650.33;;
4428;SDS011;2227;47.810;8.810;2023-04-03T18:21:58;736.05;;;657.75;;
4428;SDS011;2227;47.810;8.810;2023-04-03T18:24:28;744.83;;;665.95;;
4428;SDS011;2227;47.810;8.810;2023-04-03T18:27:01;738.43;;;660.50;;
4428;SDS011;2227;47.810;8.810;2023-04-03T18:29:36;739.67;;;662.28;;
4428;SDS011;2227;47.810;8.810;2023-04-03T18:32:05;727.33;;;650.20;;
4428;SDS011;2227;47.810;8.810;2023-04-03T18:34:34;727.08;;;649.50;;
4428;SDS011;2227;47.810;8.810;2023-04-03T18:37:01;725.83;;;647.88;;
4428;SDS011;2227;47.810;8.810;2023-04-03T18:39:28;718.10;;;640.35;;
4428;SDS011;2227;47.810;8.810;2023-04-03T18:41:55;720.47;;;643.27;;
4428;SDS011;2227;47.810;8.810;2023-04-03T18:44:25;709.67;;;631.58;;
4428;SDS011;2227;47.810;8.810;2023-04-03T18:46:53;707.33;;;629.30;;
4428;SDS011;2227;47.810;8.810;2023-04-03T18:49:21;699.15;;;621.38;;
4428;SDS011;2227;47.810;8.810;2023-04-03T18:51:48;702.20;;;616.75;;
4428;SDS011;2227;47.810;8.810;2023-04-03T18:54:15;700.60;;;621.25;;
4428;SDS011;2227;47.810;8.810;2023-04-03T18:56:41;701.97;;;616.38;;
4428;SDS011;2227;47.810;8.810;2023-04-03T18:59:08;703.05;;;618.65;;
4428;SDS011;2227;47.810;8.810;2023-04-03T19:01:35;698.37;;;616.50;;
4428;SDS011;2227;47.810;8.810;2023-04-03T19:04:02;700.88;;;623.28;;
4428;SDS011;2227;47.810;8.810;2023-04-03T19:06:29;700.25;;;612.20;;
4428;SDS011;2227;47.810;8.810;2023-04-03T19:08:58;698.70;;;613.97;;
4428;SDS011;2227;47.810;8.810;2023-04-03T19:11:25;693.50;;;608.95;;
4428;SDS011;2227;47.810;8.810;2023-04-03T19:13:55;694.80;;;612.58;;
4428;SDS011;2227;47.810;8.810;2023-04-03T19:16:39;699.17;;;611.43;;
4428;SDS011;2227;47.810;8.810;2023-04-03T19:19:06;702.28;;;606.83;;
4428;SDS011;2227;47.810;8.810;2023-04-03T19:21:32;701.78;;;608.60;;
4428;SDS011;2227;47.810;8.810;2023-04-03T19:24:03;705.40;;;600.65;;
4428;SDS011;2227;47.810;8.810;2023-04-03T19:26:30;708.55;;;612.90;;
4428;SDS011;2227;47.810;8.810;2023-04-03T19:28:57;710.83;;;607.22;;
4428;SDS011;2227;47.810;8.810;2023-04-03T19:31:23;710.92;;;602.53;;
4428;SDS011;2227;47.810;8.810;2023-04-03T19:33:50;715.28;;;615.83;;
4428;SDS011;2227;47.810;8.810;2023-04-03T19:36:17;711.58;;;602.25;;
4428;SDS011;2227;47.810;8.810;2023-04-03T19:38:44;709.47;;;597.28;;
4428;SDS011;2227;47.810;8.810;2023-04-03T19:41:12;710.47;;;608.25;;